WetterOnline ( https://www.wetteronline.de )

Wetter aktuell Itzehoe

Aktuelles Wetter: Itzehoe (26m)

6-stündlich | Neueste Meldungen
Ortszeit Temperatur Wetter
Fr, 25.06. 8:00 14.3° C wolkig
Fr, 25.06. 2:00 10.4° C wolkig
Do, 24.06. 20:00 16.7° C bedeckt
Do, 24.06. 14:00 18.3° C bewölkt
Do, 24.06. 8:00 15.7° C wolkenlos
Do, 24.06. 2:00 14.7° C bedeckt
Mi, 23.06. 20:00 17.4° C leicht bewölkt
Mi, 23.06. 14:00 19.1° C wolkig
Ortszeit Temperatur Wetter
Fr, 25.06. 9:10 16.5° C wolkig
Fr, 25.06. 9:00 15.9° C wolkig
Fr, 25.06. 8:50 15.9° C wolkig
Fr, 25.06. 8:40 15.4° C wolkig
Fr, 25.06. 8:30 15.1° C wolkig
Fr, 25.06. 8:20 15.1° C wolkig
Fr, 25.06. 8:00 14.3° C wolkig
Fr, 25.06. 7:00 11.5° C leicht bewölkt
Fr, 25.06. 6:00 9.7° C leicht bewölkt
Ortszeit Relative Feuchte Sichtweite
Fr, 25.06. 8:00 83% 22 km
Fr, 25.06. 2:00 94% 17 km
Do, 24.06. 20:00 72% 60 km
Do, 24.06. 14:00 65% 35 km
Do, 24.06. 8:00 77% 35 km
Do, 24.06. 2:00 86% 40 km
Mi, 23.06. 20:00 74% 65 km
Mi, 23.06. 14:00 70% 50 km
Ortszeit Relative Feuchte Sichtweite
Fr, 25.06. 9:10 73% -
Fr, 25.06. 9:00 78% 30 km
Fr, 25.06. 8:50 78% -
Fr, 25.06. 8:40 77% -
Fr, 25.06. 8:30 77% 30 km
Fr, 25.06. 8:20 77% -
Fr, 25.06. 8:00 83% 22 km
Fr, 25.06. 7:00 93% 10 km
Fr, 25.06. 6:00 96% 7 km
Ortszeit Niederschlagsmenge Niederschlagsart
Fr, 25.06. 8:00 0.0 l/m2 in 12 Std. -
Fr, 25.06. 2:00 0.0 l/m2 in 6 Std. -
Do, 24.06. 20:00 0.0 l/m2 in 12 Std. -
Do, 24.06. 14:00 0.0 l/m2 in 6 Std. -
Do, 24.06. 8:00 0.0 l/m2 in 12 Std. -
Do, 24.06. 2:00 0.0 l/m2 in 6 Std. -
Mi, 23.06. 20:00 0.0 l/m2 in 12 Std. -
Mi, 23.06. 14:00 0.0 l/m2 in 6 Std. -
Ortszeit Niederschlagsmenge Niederschlagsart
Fr, 25.06. 9:10 keine Meldung -
Fr, 25.06. 9:00 0.0 l/m2 in 1 Std. -
Fr, 25.06. 8:50 keine Meldung -
Fr, 25.06. 8:40 keine Meldung -
Fr, 25.06. 8:30 0.0 l/m2 in 1 Std. -
Fr, 25.06. 8:20 keine Meldung -
Fr, 25.06. 8:00 0.0 l/m2 in 1 Std. -
Fr, 25.06. 7:00 keine Meldung -
Fr, 25.06. 6:00 keine Meldung -
Ortszeit Stärke Spitze Richtung
km/h Bft. km/h Grad Sektor
Fr, 25.06. 8:00 4 1 7 310° NW
Fr, 25.06. 2:00 0 0 14 - -
Do, 24.06. 20:00 7 2 18 320° NW
Do, 24.06. 14:00 4 1 14 270° W
Do, 24.06. 8:00 7 2 11 360° N
Do, 24.06. 2:00 4 1 18 310° NW
Mi, 23.06. 20:00 11 2 22 320° NW
Mi, 23.06. 14:00 7 2 18 270° W
Ortszeit Stärke Spitze Richtung
km/h Bft. km/h Grad Sektor
Fr, 25.06. 9:10 4 1 - 220° SW
Fr, 25.06. 9:00 4 1 14 230° SW
Fr, 25.06. 8:50 4 1 - 230° SW
Fr, 25.06. 8:40 4 1 - 290° W
Fr, 25.06. 8:30 6 1 13 280° W
Fr, 25.06. 8:20 6 1 - 280° W
Fr, 25.06. 8:00 4 1 7 310° NW
Fr, 25.06. 7:00 4 1 4 120° SO
Fr, 25.06. 6:00 4 1 4 250° W
Ortszeit Untergrenze Bedeckung Gattung
total tief tief mittel hoch
Fr, 25.06. 8:00 7200 m 7/8 0/8 - - -
Fr, 25.06. 2:00 7800 m 8/8 0/8 - - -
Do, 24.06. 20:00 1080 m 8/8 8/8 - - -
Do, 24.06. 14:00 1140 m 7/8 7/8 - - -
Do, 24.06. 8:00 - 0/8 0/8 - - -
Do, 24.06. 2:00 1110 m 8/8 8/8 - - -
Mi, 23.06. 20:00 660 m 2/8 2/8 - - -
Mi, 23.06. 14:00 1260 m 6/8 6/8 - - -
Ortszeit Bedeckungsgrad in Achtel und Wolkenuntergrenze
Fr, 25.06. 9:10 3(540m) 4(6900m) 7(9000m)
Fr, 25.06. 9:00 1(450m) 5(7200m) 7(9000m)
Fr, 25.06. 8:50 1(450m) 5(7200m) 7(9000m)
Fr, 25.06. 8:40 1(450m) 6(7200m) 7(8700m)
Fr, 25.06. 8:30 6(7200m) 7(8700m) 7(9000m)
Fr, 25.06. 8:20 6(7200m) 7(8700m)
Fr, 25.06. 8:00 3(7200m) 7(8400m)
Fr, 25.06. 7:00 2(8700m) 3(9000m)
Fr, 25.06. 6:00 5(7800m)
Ortszeit Luftdruck NN (hPa) Tendenz (hPa in 3 Std.)
Fr, 25.06. 8:00 1018 - 0,5
Fr, 25.06. 2:00 1019 + 0,1
Do, 24.06. 20:00 1018 - 0,8
Do, 24.06. 14:00 1020 - 0,6
Do, 24.06. 8:00 1021 - 0,6
Do, 24.06. 2:00 1021 - 0,6
Mi, 23.06. 20:00 1021 - 0,2
Mi, 23.06. 14:00 1021 + 0,3
Ortszeit Luftdruck NN (hPa) Tendenz (hPa in 3 Std.)
Fr, 25.06. 9:10 1018 keine Meldung
Fr, 25.06. 9:00 1017 0,0
Fr, 25.06. 8:50 1017 keine Meldung
Fr, 25.06. 8:40 1018 keine Meldung
Fr, 25.06. 8:30 1018 - 0,1
Fr, 25.06. 8:20 1018 keine Meldung
Fr, 25.06. 8:00 1018 - 0,5
Fr, 25.06. 7:00 1018 - 0,5
Fr, 25.06. 6:00 1018 - 0,5
Ortszeit Schneehöhe (cm)
Fr, 25.06. 8:00 -
Fr, 25.06. 2:00 -
Do, 24.06. 20:00 -
Do, 24.06. 14:00 -
Do, 24.06. 8:00 -
Do, 24.06. 2:00 -
Mi, 23.06. 20:00 -
Mi, 23.06. 14:00 -
Ortszeit Schneehöhe (cm)
Fr, 25.06. 9:10 -
Fr, 25.06. 9:00 -
Fr, 25.06. 8:50 -
Fr, 25.06. 8:40 -
Fr, 25.06. 8:30 -
Fr, 25.06. 8:20 -
Fr, 25.06. 8:00 -
Fr, 25.06. 7:00 -
Fr, 25.06. 6:00 -
Link zu dieser Seite / Seite empfehlen

Das Wetter in ...